Coban, Guatemala
Current Conditions -  °F | °C
As of 4:00 PM on Saturday 20 Dec 2014 (Local Time) from MGGT Reporting Station
Scattered Clouds Scattered Clouds  
Wind Chill: 73°   Ceiling: Unl
Heat Index: 73°   Visibility: 6mi
Dew Point: 57°   Wind: 14mph
Humidity: 57%   Direction: 30°NNE
Pressure: 30.24"   Gusts: NA
Location:  15.47°N, 90.38°W
Report Text: MGGT 202200Z 03012KT 9999 SCT022 23/14 Q1024 A3024 FEW080
Loading
Personal Weather Stations






























Interactive Weather Map New forecast layout! Learn more

10-Day Weather Forecast

Advertisements
Track Severe Weather on mobile